Time;durP1;ratioP1;P1;durP2;ratioP2;P2;SDS_P1;SDS_P2;PMS_P1;PMS_P2;Temp;Humidity;BMP_temperature;BMP_pressure;BME280_temperature;BME280_humidity;BME280_pressure;Samples;Min_cycle;Max_cycle;Signal;HPM_P1;HPM_P2
2022/03/07 00:00:16;;;;;;;18.00;12.37;;;-2.50;97.10;;;;;;5004598;28;20224;-81
2022/03/07 00:02:43;;;;;;;17.60;12.83;;;-2.50;97.20;;;;;;5012177;28;20232;-79
2022/03/07 00:05:11;;;;;;;20.73;12.43;;;-2.50;97.10;;;;;;5019814;28;20226;-80
2022/03/07 00:07:38;;;;;;;18.80;13.93;;;-2.50;97.00;;;;;;4994078;28;20234;-80
2022/03/07 00:10:05;;;;;;;19.23;12.63;;;-2.50;97.00;;;;;;5016504;28;20572;-79
2022/03/07 00:12:31;;;;;;;17.43;12.40;;;-2.60;97.00;;;;;;5017277;28;20221;-80
2022/03/07 00:14:58;;;;;;;20.37;13.23;;;-2.60;96.80;;;;;;5007620;28;20229;-80
2022/03/07 00:17:24;;;;;;;17.73;12.83;;;-2.60;96.90;;;;;;5010672;28;20561;-79
2022/03/07 00:19:51;;;;;;;17.57;11.87;;;-2.70;96.90;;;;;;5011283;28;20246;-79
2022/03/07 00:22:19;;;;;;;17.63;12.53;;;-2.70;97.00;;;;;;5019640;28;20217;-79
2022/03/07 00:24:46;;;;;;;18.93;12.70;;;-2.70;97.00;;;;;;5000124;28;20317;-80
2022/03/07 00:27:12;;;;;;;16.80;12.03;;;-2.70;97.00;;;;;;4999868;28;20742;-79
2022/03/07 00:29:39;;;;;;;20.90;12.97;;;-2.80;97.00;;;;;;5005129;28;20230;-79
2022/03/07 00:32:08;;;;;;;19.77;14.43;;;-2.80;97.20;;;;;;5001125;28;20232;-79
2022/03/07 00:34:34;;;;;;;21.27;15.17;;;-2.80;97.40;;;;;;5010236;28;20310;-79
2022/03/07 00:37:01;;;;;;;23.33;13.93;;;-2.80;97.60;;;;;;4990832;28;20261;-79
2022/03/07 00:39:29;;;;;;;20.07;14.40;;;-2.80;97.80;;;;;;5007249;28;20687;-79
2022/03/07 00:41:56;;;;;;;18.73;13.37;;;-2.80;97.80;;;;;;5008461;28;20227;-79
2022/03/07 00:44:24;;;;;;;19.77;12.83;;;-2.80;97.70;;;;;;4989054;28;20707;-80
2022/03/07 00:46:51;;;;;;;18.77;13.47;;;-2.80;97.60;;;;;;4988920;28;20226;-80
2022/03/07 00:49:18;;;;;;;19.40;13.93;;;-2.80;97.40;;;;;;4989177;28;20332;-79
2022/03/07 00:51:45;;;;;;;16.90;13.20;;;-2.90;97.50;;;;;;4991940;28;20230;-80
2022/03/07 00:54:14;;;;;;;20.40;13.97;;;-2.90;97.50;;;;;;4990769;28;20323;-79
2022/03/07 00:56:43;;;;;;;18.47;13.53;;;-3.00;97.70;;;;;;4991755;28;20964;-79
2022/03/07 00:59:10;;;;;;;19.60;13.77;;;-3.00;97.60;;;;;;4989777;28;20234;-79
2022/03/07 01:01:36;;;;;;;18.60;12.77;;;-3.00;97.60;;;;;;4990890;28;20232;-79
2022/03/07 01:04:03;;;;;;;21.43;14.63;;;-3.00;97.60;;;;;;5007624;28;20316;-79
2022/03/07 01:06:30;;;;;;;17.17;13.17;;;-3.10;97.50;;;;;;4990190;28;20251;-80
2022/03/07 01:08:57;;;;;;;19.73;12.73;;;-3.10;97.60;;;;;;5000002;28;20241;-79
2022/03/07 01:11:24;;;;;;;23.90;14.27;;;-3.10;97.60;;;;;;5009608;28;20322;-80
2022/03/07 01:13:52;;;;;;;19.70;13.20;;;-3.20;97.60;;;;;;5026960;28;20226;-80
2022/03/07 01:16:19;;;;;;;20.23;14.50;;;-3.20;97.60;;;;;;5027734;28;20311;-81
2022/03/07 01:18:45;;;;;;;18.03;12.73;;;-3.20;97.70;;;;;;5026955;28;20277;-80
2022/03/07 01:21:13;;;;;;;22.93;14.83;;;-3.20;97.90;;;;;;5027086;28;20240;-79
2022/03/07 01:23:40;;;;;;;20.00;13.73;;;-3.30;98.00;;;;;;5019020;28;20249;-79
2022/03/07 01:26:06;;;;;;;22.83;15.27;;;-3.20;98.20;;;;;;5009407;28;20790;-80
2022/03/07 01:28:33;;;;;;;23.53;14.93;;;-3.30;98.30;;;;;;5000936;28;20252;-79
2022/03/07 01:31:01;;;;;;;25.10;16.10;;;-3.20;98.40;;;;;;5019462;28;20242;-79
2022/03/07 01:33:28;;;;;;;23.87;15.07;;;-3.20;98.50;;;;;;4989291;28;20235;-79
2022/03/07 01:35:55;;;;;;;19.87;14.03;;;-3.20;98.40;;;;;;5007897;28;20227;-79
2022/03/07 01:38:22;;;;;;;24.33;14.33;;;-3.20;98.40;;;;;;4988831;28;20285;-79
2022/03/07 01:40:50;;;;;;;22.37;14.53;;;-3.20;98.40;;;;;;4988694;28;20238;-79
2022/03/07 01:43:18;;;;;;;21.80;14.17;;;-3.30;98.30;;;;;;4985770;28;20229;-78
2022/03/07 01:45:45;;;;;;;20.83;14.13;;;-3.30;98.10;;;;;;4968573;28;20241;-79
2022/03/07 01:48:13;;;;;;;18.03;13.43;;;-3.30;97.90;;;;;;4969290;28;20237;-79
2022/03/07 01:50:40;;;;;;;21.53;15.13;;;-3.40;98.00;;;;;;4993668;28;20262;-79
2022/03/07 01:53:08;;;;;;;19.73;13.77;;;-3.40;98.10;;;;;;4977943;28;20309;-79
2022/03/07 01:55:34;;;;;;;17.23;13.47;;;-3.40;98.20;;;;;;5012141;28;20308;-80
2022/03/07 01:58:03;;;;;;;19.80;13.27;;;-3.40;98.10;;;;;;4979309;28;20609;-80
2022/03/07 02:00:30;;;;;;;20.90;14.00;;;-3.50;98.00;;;;;;4997808;28;20233;-80
2022/03/07 02:02:57;;;;;;;18.47;13.53;;;-3.50;98.00;;;;;;5016620;28;20230;-80
2022/03/07 02:05:36;;;;;;;20.60;14.37;;;-3.60;98.00;;;;;;4998199;28;20325;-79
2022/03/07 02:08:08;;;;;;;20.30;14.03;;;-3.60;98.10;;;;;;5028947;28;20291;-80
2022/03/07 02:10:45;;;;;;;20.37;14.17;;;-3.60;98.20;;;;;;4996614;28;20240;-79
2022/03/07 02:13:16;;;;;;;22.03;15.03;;;-3.70;98.10;;;;;;4995136;28;20294;-80
2022/03/07 02:15:55;;;;;;;26.03;14.97;;;-3.70;98.30;;;;;;4995922;28;20262;-80
2022/03/07 02:18:23;;;;;;;20.83;14.27;;;-3.70;99.10;;;;;;4994795;28;20233;-80
2022/03/07 02:21:00;;;;;;;19.63;13.93;;;-3.70;98.60;;;;;;4995998;28;20249;-80
2022/03/07 02:23:30;;;;;;;20.60;14.73;;;-3.70;98.90;;;;;;5028265;28;20371;-80
2022/03/07 02:25:57;;;;;;;23.20;14.27;;;-3.70;98.90;;;;;;5035252;28;20274;-80
2022/03/07 02:28:24;;;;;;;19.30;13.57;;;-3.70;98.90;;;;;;5033913;28;20255;-80
2022/03/07 02:30:51;;;;;;;19.90;14.00;;;-3.70;98.80;;;;;;5032693;28;20266;-80
2022/03/07 02:33:18;;;;;;;19.07;14.33;;;-3.70;98.70;;;;;;5015763;28;20236;-79
2022/03/07 02:35:46;;;;;;;22.97;14.33;;;-3.70;98.70;;;;;;5014895;28;20229;-78
2022/03/07 02:38:14;;;;;;;21.37;15.30;;;-3.70;98.70;;;;;;5013725;28;20233;-79
2022/03/07 02:40:46;;;;;;;20.80;13.43;;;-3.80;98.70;;;;;;5014646;28;20229;-79
2022/03/07 02:43:14;;;;;;;20.63;13.73;;;-3.80;98.80;;;;;;5013310;28;20230;-79
2022/03/07 02:45:42;;;;;;;21.20;13.70;;;-3.80;99.00;;;;;;5014230;28;20707;-81
2022/03/07 02:48:09;;;;;;;20.13;14.43;;;-3.80;98.60;;;;;;5013348;28;20732;-78
2022/03/07 02:50:35;;;;;;;16.63;12.93;;;-3.80;98.70;;;;;;5013796;28;20238;-79
2022/03/07 02:53:03;;;;;;;20.70;14.20;;;-3.90;99.10;;;;;;5014706;28;20305;-79
2022/03/07 02:55:32;;;;;;;18.03;13.17;;;-3.90;98.90;;;;;;5033917;28;20235;-80
2022/03/07 02:58:00;;;;;;;17.50;13.27;;;-3.90;99.10;;;;;;5035869;28;20232;-80
2022/03/07 03:00:27;;;;;;;19.77;13.60;;;-3.90;99.10;;;;;;5035394;28;20249;-80
2022/03/07 03:02:54;;;;;;;21.23;13.67;;;-3.90;99.10;;;;;;5032883;28;20233;-80
2022/03/07 03:05:21;;;;;;;21.07;14.47;;;-3.90;99.10;;;;;;5032312;28;20236;-80
2022/03/07 03:07:48;;;;;;;18.87;13.77;;;-3.90;99.30;;;;;;5016204;28;20235;-80
2022/03/07 03:10:15;;;;;;;19.87;12.87;;;-3.90;99.40;;;;;;5051478;28;20377;-80
2022/03/07 03:12:42;;;;;;;18.27;12.40;;;-3.90;99.40;;;;;;5051902;28;20237;-80
2022/03/07 03:15:10;;;;;;;16.77;12.57;;;-3.90;99.40;;;;;;5051651;28;20228;-80
2022/03/07 03:17:39;;;;;;;19.50;14.00;;;-3.90;99.30;;;;;;5051784;28;20266;-80
2022/03/07 03:20:07;;;;;;;17.40;13.03;;;-3.90;99.10;;;;;;5051634;28;20236;-79
2022/03/07 03:22:34;;;;;;;19.60;13.20;;;-3.90;98.90;;;;;;5052270;28;20633;-79
2022/03/07 03:25:00;;;;;;;20.40;13.97;;;-4.00;98.80;;;;;;5033933;28;20236;-80
2022/03/07 03:27:27;;;;;;;16.87;12.47;;;-4.00;98.90;;;;;;5051361;28;20259;-80
2022/03/07 03:29:54;;;;;;;21.00;13.90;;;-4.00;99.10;;;;;;5051608;28;20226;-81
2022/03/07 03:32:22;;;;;;;21.47;14.43;;;-4.00;99.20;;;;;;5033504;28;20234;-80
2022/03/07 03:34:48;;;;;;;20.13;14.13;;;-4.00;99.40;;;;;;5051512;28;20287;-80
2022/03/07 03:37:15;;;;;;;20.57;14.00;;;-4.00;99.40;;;;;;5033305;28;20235;-80
2022/03/07 03:39:42;;;;;;;22.63;14.60;;;-4.10;99.50;;;;;;5051589;28;20231;-80
2022/03/07 03:42:09;;;;;;;20.90;14.00;;;-4.10;99.50;;;;;;5051282;28;20238;-82
2022/03/07 03:44:35;;;;;;;22.50;14.60;;;-4.10;99.50;;;;;;5051320;28;20233;-80
2022/03/07 03:47:02;;;;;;;20.40;14.53;;;-4.10;99.50;;;;;;5051993;28;20224;-80
2022/03/07 03:49:30;;;;;;;21.63;15.07;;;-4.10;99.70;;;;;;5050774;28;20234;-81
2022/03/07 03:51:57;;;;;;;25.37;15.03;;;-4.10;99.80;;;;;;5051595;28;20239;-81
2022/03/07 03:54:24;;;;;;;20.73;15.13;;;-4.10;99.80;;;;;;5048653;28;20236;-79
2022/03/07 03:56:52;;;;;;;21.00;14.37;;;-4.10;99.90;;;;;;5049735;28;20232;-80
2022/03/07 03:59:18;;;;;;;20.60;13.77;;;-4.10;99.90;;;;;;5048364;28;20236;-79
2022/03/07 04:01:45;;;;;;;21.83;14.83;;;-4.10;99.90;;;;;;5018080;28;20232;-80
2022/03/07 04:04:12;;;;;;;22.97;14.57;;;-4.10;99.80;;;;;;5028568;28;20237;-79
2022/03/07 04:06:41;;;;;;;22.53;14.20;;;-4.10;99.80;;;;;;5029216;28;20312;-79
2022/03/07 04:09:08;;;;;;;23.77;15.17;;;-4.10;99.90;;;;;;5027839;28;20636;-81
2022/03/07 04:11:35;;;;;;;26.13;15.53;;;-4.10;99.90;;;;;;5011517;28;20252;-80
2022/03/07 04:14:02;;;;;;;21.47;14.63;;;-4.10;99.90;;;;;;5010238;28;20241;-79
2022/03/07 04:16:29;;;;;;;24.43;13.90;;;-4.20;99.90;;;;;;5029033;28;20229;-79
2022/03/07 04:18:56;;;;;;;21.13;15.03;;;-4.20;99.90;;;;;;5027877;28;20730;-79
2022/03/07 04:21:26;;;;;;;20.50;13.90;;;-4.20;99.90;;;;;;5026692;28;20474;-80
2022/03/07 04:23:54;;;;;;;20.37;13.77;;;-4.20;99.90;;;;;;5026482;28;20256;-80
2022/03/07 04:26:21;;;;;;;26.07;14.03;;;-4.20;99.90;;;;;;5028300;28;20299;-81
2022/03/07 04:28:47;;;;;;;22.73;15.07;;;-4.30;99.80;;;;;;5028719;28;20229;-80
2022/03/07 04:31:14;;;;;;;26.03;15.30;;;-4.30;99.90;;;;;;5016937;28;20233;-81
2022/03/07 04:33:41;;;;;;;24.53;14.53;;;-4.30;99.90;;;;;;5031202;28;20228;-80
2022/03/07 04:36:08;;;;;;;20.23;13.93;;;-4.30;99.90;;;;;;5049002;28;20271;-80
2022/03/07 04:38:34;;;;;;;21.80;14.47;;;-4.30;99.90;;;;;;5030818;28;20781;-80
2022/03/07 04:41:03;;;;;;;21.67;14.83;;;-4.30;99.90;;;;;;5014124;28;20251;-80
2022/03/07 04:43:30;;;;;;;25.03;15.00;;;-4.40;99.90;;;;;;5038273;28;20231;-80
2022/03/07 04:45:58;;;;;;;21.37;14.67;;;-4.40;99.80;;;;;;5028330;28;20221;-79
2022/03/07 04:48:25;;;;;;;20.70;13.87;;;-4.40;99.80;;;;;;5031373;28;20303;-80
2022/03/07 04:50:52;;;;;;;20.83;14.33;;;-4.50;99.70;;;;;;5028797;28;20247;-79
2022/03/07 04:53:18;;;;;;;24.30;14.00;;;-4.50;99.60;;;;;;5027586;28;20894;-80
2022/03/07 04:55:45;;;;;;;21.90;14.87;;;-4.60;99.40;;;;;;4998571;28;20225;-80
2022/03/07 04:58:13;;;;;;;21.43;14.67;;;-4.60;99.40;;;;;;5013586;28;20749;-80
2022/03/07 05:00:40;;;;;;;19.07;13.20;;;-4.70;99.50;;;;;;5030006;28;20232;-80
2022/03/07 05:03:06;;;;;;;22.77;15.50;;;-4.70;99.60;;;;;;5047877;28;20237;-78
2022/03/07 05:05:33;;;;;;;24.07;14.23;;;-4.70;99.60;;;;;;5047509;28;20689;-80
2022/03/07 05:08:00;;;;;;;22.83;14.67;;;-4.80;99.60;;;;;;5047420;28;21021;-79
2022/03/07 05:10:26;;;;;;;21.83;14.77;;;-4.80;99.70;;;;;;5029124;28;20773;-79
2022/03/07 05:12:53;;;;;;;21.23;14.23;;;-4.80;99.70;;;;;;5047293;28;20254;-80
2022/03/07 05:15:21;;;;;;;22.97;15.27;;;-4.80;99.80;;;;;;5047250;28;20324;-80
2022/03/07 05:17:51;;;;;;;21.47;14.70;;;-4.80;99.90;;;;;;5046024;28;20733;-79
2022/03/07 05:20:18;;;;;;;26.07;15.77;;;-4.90;99.90;;;;;;5045781;28;20327;-79
2022/03/07 05:22:45;;;;;;;23.27;15.17;;;-4.90;99.90;;;;;;5045651;28;20681;-80
2022/03/07 05:25:14;;;;;;;25.10;16.50;;;-4.80;99.90;;;;;;5044978;28;20247;-80
2022/03/07 05:27:40;;;;;;;24.40;15.33;;;-4.80;99.90;;;;;;5022225;28;20229;-81
2022/03/07 05:30:09;;;;;;;24.97;15.43;;;-4.80;99.90;;;;;;5017815;28;20230;-79
2022/03/07 05:32:37;;;;;;;23.77;15.77;;;-4.80;99.90;;;;;;5027396;28;20250;-80
2022/03/07 05:35:05;;;;;;;25.73;16.47;;;-4.70;99.90;;;;;;5027215;28;20233;-80
2022/03/07 05:37:32;;;;;;;41.27;16.53;;;-4.70;99.90;;;;;;5029115;28;20229;-79
2022/03/07 05:39:58;;;;;;;26.27;16.87;;;-4.60;99.90;;;;;;5029091;28;20259;-80
2022/03/07 05:42:25;;;;;;;22.93;15.20;;;-4.60;99.90;;;;;;5028533;28;20229;-81
2022/03/07 05:44:52;;;;;;;25.37;16.50;;;-4.60;99.90;;;;;;5009935;28;20232;-80
2022/03/07 05:47:19;;;;;;;21.97;16.23;;;-4.60;99.90;;;;;;5028240;28;20259;-82
2022/03/07 05:49:47;;;;;;;26.03;16.20;;;-4.60;99.90;;;;;;5019796;28;20226;-84
2022/03/07 05:52:14;;;;;;;27.97;16.50;;;-4.60;99.90;;;;;;5028461;28;20231;-85
2022/03/07 05:54:40;;;;;;;23.73;16.30;;;-4.60;99.90;;;;;;5023952;28;20301;-83
2022/03/07 05:57:07;;;;;;;26.13;15.37;;;-4.60;99.90;;;;;;5009230;28;20221;-82
2022/03/07 05:59:34;;;;;;;24.90;15.80;;;-4.60;99.90;;;;;;5007251;28;20290;-81
2022/03/07 06:02:01;;;;;;;25.87;16.03;;;-4.60;99.90;;;;;;5007248;28;20246;-83
2022/03/07 06:04:27;;;;;;;27.63;16.13;;;-4.50;99.90;;;;;;5022259;28;20878;-83
2022/03/07 06:06:55;;;;;;;24.33;16.00;;;-4.60;99.90;;;;;;5015670;28;20685;-83
2022/03/07 06:09:22;;;;;;;24.43;15.30;;;-4.60;99.90;;;;;;5021850;28;20229;-83
2022/03/07 06:11:49;;;;;;;27.60;16.30;;;-4.60;99.90;;;;;;5024078;28;20249;-83
2022/03/07 06:14:16;;;;;;;23.07;15.47;;;-4.60;99.90;;;;;;4998708;28;20996;-82
2022/03/07 06:16:43;;;;;;;23.23;14.10;;;-4.60;99.90;;;;;;4994337;28;20258;-83
2022/03/07 06:19:10;;;;;;;25.90;14.97;;;-4.60;99.90;;;;;;5030226;28;20231;-82
2022/03/07 06:21:36;;;;;;;293.37;35.90;;;-4.60;99.90;;;;;;5023461;28;20229;-83
2022/03/07 06:24:05;;;;;;;57.67;16.67;;;-4.60;99.90;;;;;;5040735;28;20635;-84
2022/03/07 06:26:32;;;;;;;21.63;14.27;;;-4.50;99.90;;;;;;5029997;28;20234;-83
2022/03/07 06:29:00;;;;;;;24.13;15.57;;;-4.50;99.90;;;;;;5024771;28;20228;-82
2022/03/07 06:31:27;;;;;;;25.53;14.57;;;-4.40;99.90;;;;;;5029890;28;20786;-82
2022/03/07 06:33:54;;;;;;;21.40;15.27;;;-4.30;99.90;;;;;;5025529;28;20286;-83
2022/03/07 06:36:20;;;;;;;23.03;14.77;;;-4.20;99.90;;;;;;5024989;28;20225;-83
2022/03/07 06:38:47;;;;;;;22.13;14.33;;;-4.10;99.90;;;;;;5034522;28;20238;-82
2022/03/07 06:41:15;;;;;;;23.37;15.03;;;-3.90;99.90;;;;;;5024227;28;20229;-84
2022/03/07 06:43:42;;;;;;;18.57;14.70;;;-3.70;99.90;;;;;;5018147;28;20390;-83
2022/03/07 06:46:09;;;;;;;20.13;14.40;;;-3.50;99.90;;;;;;5021495;28;20236;-84
2022/03/07 06:48:36;;;;;;;17.87;13.60;;;-3.40;99.90;;;;;;5030175;28;20221;-82
2022/03/07 06:51:03;;;;;;;23.23;15.67;;;-3.30;99.90;;;;;;5025475;28;20656;-83
2022/03/07 06:53:29;;;;;;;47.00;27.90;;;-3.20;99.90;;;;;;5030167;28;20222;-81
2022/03/07 06:55:58;;;;;;;26.73;16.47;;;-3.20;99.90;;;;;;5025420;28;20653;-81
2022/03/07 06:58:26;;;;;;;23.37;14.37;;;-3.10;99.90;;;;;;5027196;28;20601;-82
2022/03/07 07:00:53;;;;;;;22.63;14.73;;;-3.10;99.90;;;;;;5029285;28;20274;-83
2022/03/07 07:03:22;;;;;;;21.63;14.63;;;-3.00;99.90;;;;;;5029106;28;20563;-82
2022/03/07 07:05:49;;;;;;;18.30;13.80;;;-3.00;99.90;;;;;;5025637;28;20218;-82
2022/03/07 07:08:15;;;;;;;23.43;15.70;;;-2.90;99.90;;;;;;5046203;28;21905;-83
2022/03/07 07:10:42;;;;;;;28.17;18.33;;;-2.80;99.80;;;;;;5029496;28;20256;-83
2022/03/07 07:13:13;;;;;;;25.20;16.73;;;-2.70;99.90;;;;;;5043798;28;20221;-82
2022/03/07 07:15:42;;;;;;;22.27;15.30;;;-2.60;99.90;;;;;;5019939;28;20233;-82
2022/03/07 07:18:08;;;;;;;21.70;14.77;;;-2.50;99.90;;;;;;5028844;28;20256;-83
2022/03/07 07:20:36;;;;;;;19.07;14.40;;;-2.30;99.90;;;;;;5030124;28;20223;-82
2022/03/07 07:23:03;;;;;;;22.37;14.30;;;-2.20;99.90;;;;;;5034464;28;20233;-83
2022/03/07 07:25:29;;;;;;;18.83;13.13;;;-2.10;99.90;;;;;;5034185;28;20237;-82
2022/03/07 07:27:56;;;;;;;20.07;14.57;;;-1.90;99.90;;;;;;5034764;28;20241;-82
2022/03/07 07:30:23;;;;;;;22.30;14.57;;;-1.70;99.90;;;;;;5022333;28;20254;-84
2022/03/07 07:32:51;;;;;;;20.47;14.23;;;-1.60;99.90;;;;;;5029415;28;20220;-83
2022/03/07 07:35:18;;;;;;;17.50;13.00;;;-1.40;99.90;;;;;;5028865;28;20240;-83
2022/03/07 07:37:44;;;;;;;18.10;13.73;;;-1.20;99.90;;;;;;5037040;28;20231;-83
2022/03/07 07:40:11;;;;;;;20.20;15.37;;;-1.00;99.90;;;;;;5030778;28;20261;-83
2022/03/07 07:42:38;;;;;;;18.77;13.00;;;-0.80;99.90;;;;;;5026240;28;20235;-82
2022/03/07 07:45:09;;;;;;;18.67;13.10;;;-0.50;99.90;;;;;;5028139;28;20274;-82
2022/03/07 07:47:36;;;;;;;20.40;12.60;;;-0.20;99.90;;;;;;5036513;28;20244;-82
2022/03/07 07:50:05;;;;;;;16.87;12.43;;;0.20;99.90;;;;;;5032627;28;20239;-82
2022/03/07 07:52:32;;;;;;;16.40;12.33;;;0.60;99.90;;;;;;5024061;28;20228;-82
2022/03/07 07:54:58;;;;;;;15.67;12.43;;;1.00;99.90;;;;;;5031041;28;20229;-82
2022/03/07 07:57:26;;;;;;;16.23;11.40;;;1.40;99.90;;;;;;5035183;28;20293;-82
2022/03/07 07:59:53;;;;;;;18.53;14.13;;;1.80;99.50;;;;;;5026720;28;20233;-82
2022/03/07 08:02:20;;;;;;;13.87;11.77;;;2.20;99.30;;;;;;5025167;28;20252;-82
2022/03/07 08:04:47;;;;;;;19.40;14.33;;;2.50;99.00;;;;;;5032639;28;20231;-83
2022/03/07 08:07:15;;;;;;;19.17;12.40;;;2.70;98.60;;;;;;5025506;28;20213;-82
2022/03/07 08:09:41;;;;;;;14.43;11.70;;;3.00;98.30;;;;;;5027859;28;20259;-82
2022/03/07 08:12:10;;;;;;;13.30;10.77;;;3.20;98.20;;;;;;5016557;28;20298;-81
2022/03/07 08:14:37;;;;;;;14.37;10.70;;;3.40;98.20;;;;;;5020402;28;20257;-83
2022/03/07 08:17:05;;;;;;;15.50;11.60;;;3.50;98.00;;;;;;5045983;28;20232;-82
2022/03/07 08:19:32;;;;;;;16.73;11.63;;;3.80;97.80;;;;;;5044661;28;20243;-83
2022/03/07 08:21:58;;;;;;;15.87;11.03;;;3.90;97.60;;;;;;5024460;28;20710;-82
2022/03/07 08:24:26;;;;;;;10.00;8.70;;;4.00;97.60;;;;;;5024094;28;20922;-83
2022/03/07 08:26:53;;;;;;;10.27;8.40;;;4.10;97.50;;;;;;5027105;28;20284;-83
2022/03/07 08:29:20;;;;;;;10.07;7.93;;;4.30;97.50;;;;;;5032336;28;20234;-83
2022/03/07 08:31:47;;;;;;;11.97;8.67;;;4.40;97.40;;;;;;5041539;28;20248;-82
2022/03/07 08:34:13;;;;;;;12.17;8.47;;;4.50;97.20;;;;;;5024181;28;20229;-83
2022/03/07 08:36:40;;;;;;;9.37;6.80;;;4.60;97.20;;;;;;5031947;28;20237;-83
2022/03/07 08:39:07;;;;;;;10.83;7.00;;;4.80;97.00;;;;;;5029654;28;20998;-80
2022/03/07 08:41:35;;;;;;;7.10;6.27;;;5.00;97.40;;;;;;5025309;28;20238;-81
2022/03/07 08:44:02;;;;;;;7.17;5.73;;;5.30;97.40;;;;;;5020598;28;20243;-81
2022/03/07 08:46:29;;;;;;;5.90;5.30;;;5.50;97.00;;;;;;5019144;28;20724;-83
2022/03/07 08:48:56;;;;;;;7.13;5.77;;;5.80;96.10;;;;;;5027216;28;20227;-83
2022/03/07 08:51:22;;;;;;;6.87;5.57;;;6.10;96.10;;;;;;5016862;28;20250;-84
2022/03/07 08:53:49;;;;;;;5.83;4.77;;;6.40;96.20;;;;;;5034535;28;20263;-83
2022/03/07 08:56:16;;;;;;;5.60;5.00;;;6.70;95.70;;;;;;5031692;28;20279;-84
2022/03/07 08:58:44;;;;;;;5.80;4.63;;;7.10;95.10;;;;;;5034173;28;20231;-83
2022/03/07 09:01:11;;;;;;;6.03;4.90;;;7.40;94.60;;;;;;5016033;28;20835;-80
2022/03/07 09:03:38;;;;;;;5.73;4.57;;;7.70;93.80;;;;;;5026416;28;20222;-81
2022/03/07 09:06:04;;;;;;;6.97;4.90;;;8.00;94.50;;;;;;5020505;28;20824;-80
2022/03/07 09:08:31;;;;;;;6.30;4.87;;;8.30;94.20;;;;;;5037795;28;20330;-81
2022/03/07 09:10:58;;;;;;;5.90;4.20;;;8.60;94.60;;;;;;5029343;28;20264;-81
2022/03/07 09:13:24;;;;;;;7.30;4.37;;;9.00;93.40;;;;;;5029406;28;20258;-82
2022/03/07 09:15:55;;;;;;;6.23;4.10;;;9.40;93.40;;;;;;5033137;28;20227;-82
2022/03/07 09:18:22;;;;;;;4.70;3.80;;;9.80;93.10;;;;;;5037781;28;20267;-82
2022/03/07 09:20:49;;;;;;;5.90;3.80;;;10.20;91.00;;;;;;5028281;28;20234;-82
2022/03/07 09:23:16;;;;;;;5.07;3.30;;;10.60;91.60;;;;;;5025784;28;20226;-82
2022/03/07 09:25:42;;;;;;;4.80;3.53;;;10.90;90.60;;;;;;5025196;28;20224;-83
2022/03/07 09:28:09;;;;;;;3.87;2.97;;;11.20;90.50;;;;;;5030869;28;20828;-82
2022/03/07 09:30:36;;;;;;;3.20;2.67;;;11.50;89.40;;;;;;5026351;28;20232;-83
2022/03/07 09:33:04;;;;;;;3.73;2.87;;;11.80;86.10;;;;;;5030341;28;20316;-83
2022/03/07 09:35:31;;;;;;;2.67;2.47;;;11.90;82.30;;;;;;5030527;28;20226;-82
2022/03/07 09:37:57;;;;;;;3.93;2.63;;;12.00;81.90;;;;;;5008016;28;20227;-82
2022/03/07 09:40:25;;;;;;;5.33;2.83;;;12.00;82.90;;;;;;4991682;28;20241;-82
2022/03/07 09:42:52;;;;;;;4.37;3.00;;;12.10;83.90;;;;;;5001332;28;20229;-84
2022/03/07 09:45:19;;;;;;;3.33;2.40;;;12.20;82.10;;;;;;4981891;28;20293;-83
2022/03/07 09:47:48;;;;;;;2.63;2.10;;;12.40;81.00;;;;;;5012946;28;20897;-82
2022/03/07 09:50:17;;;;;;;2.90;2.60;;;12.50;80.30;;;;;;5009470;28;20674;-82
2022/03/07 09:52:45;;;;;;;4.30;2.73;;;12.60;77.50;;;;;;5017068;28;20777;-82
2022/03/07 09:55:14;;;;;;;3.50;2.20;;;12.70;79.30;;;;;;5005805;28;20292;-83
2022/03/07 09:57:41;;;;;;;2.73;2.13;;;12.80;74.40;;;;;;4984723;28;20240;-83
2022/03/07 10:00:10;;;;;;;2.57;1.93;;;12.80;75.00;;;;;;5003398;28;20266;-82
2022/03/07 10:02:36;;;;;;;2.40;1.80;;;12.80;75.70;;;;;;5007136;28;20274;-83
2022/03/07 10:05:05;;;;;;;2.43;1.63;;;12.90;76.10;;;;;;4988952;28;20813;-82
2022/03/07 10:07:43;;;;;;;2.70;2.00;;;13.10;75.40;;;;;;5007079;28;20235;-82
2022/03/07 10:10:10;;;;;;;3.10;1.80;;;13.40;73.80;;;;;;5000833;28;20518;-82
2022/03/07 10:12:45;;;;;;;4.23;2.20;;;13.60;73.20;;;;;;4997268;28;20246;-83
2022/03/07 10:15:12;;;;;;;4.67;1.73;;;13.80;69.00;;;;;;5007323;28;21038;-84
2022/03/07 10:17:41;;;;;;;1.57;1.27;;;13.90;66.70;;;;;;5000147;28;20231;-82
2022/03/07 10:20:09;;;;;;;2.13;1.60;;;13.90;67.40;;;;;;5015024;28;20786;-82
2022/03/07 10:22:45;;;;;;;2.27;1.57;;;13.80;67.10;;;;;;4989664;28;20316;-84
2022/03/07 10:25:11;;;;;;;2.10;1.60;;;13.70;67.60;;;;;;4993470;28;20725;-84
2022/03/07 10:27:41;;;;;;;1.77;1.30;;;13.80;69.20;;;;;;5000962;28;20249;-84
2022/03/07 10:30:10;;;;;;;2.20;1.50;;;14.00;67.20;;;;;;5000027;28;20226;-79
2022/03/07 10:32:38;;;;;;;1.93;1.43;;;14.10;65.30;;;;;;4997440;28;20246;-79
2022/03/07 10:35:06;;;;;;;2.57;1.30;;;14.10;64.00;;;;;;5001500;28;20819;-79
2022/03/07 10:37:35;;;;;;;1.20;1.10;;;14.10;65.80;;;;;;4980684;28;20223;-79
2022/03/07 10:40:07;;;;;;;2.93;1.40;;;14.20;64.70;;;;;;4994457;28;20230;-80
2022/03/07 10:42:44;;;;;;;1.40;1.10;;;14.20;62.00;;;;;;4990928;28;20304;-80
2022/03/07 10:45:11;;;;;;;1.50;1.20;;;14.20;62.60;;;;;;5000682;28;20302;-80
2022/03/07 10:47:38;;;;;;;1.50;1.10;;;14.30;64.30;;;;;;5004144;28;20271;-80
2022/03/07 10:50:06;;;;;;;3.67;1.13;;;14.40;64.00;;;;;;5003076;28;21756;-79
2022/03/07 10:52:38;;;;;;;1.83;1.20;;;14.50;61.40;;;;;;4986132;28;20257;-81
2022/03/07 10:55:11;;;;;;;1.97;1.17;;;14.50;61.30;;;;;;5003003;28;20250;-80
2022/03/07 10:57:39;;;;;;;2.03;1.43;;;14.60;60.20;;;;;;5001496;28;20232;-81
2022/03/07 11:00:09;;;;;;;2.70;1.10;;;14.60;60.90;;;;;;5000866;28;20281;-80
2022/03/07 11:02:41;;;;;;;2.33;1.23;;;14.60;58.60;;;;;;5003322;28;20263;-81
2022/03/07 11:05:09;;;;;;;1.80;1.10;;;14.60;60.60;;;;;;5001032;28;20231;-81
2022/03/07 11:07:38;;;;;;;1.13;0.93;;;14.50;59.00;;;;;;4991620;28;20229;-81
2022/03/07 11:10:09;;;;;;;1.10;1.00;;;14.50;58.30;;;;;;4982637;28;20230;-80
2022/03/07 11:12:36;;;;;;;2.03;1.10;;;14.50;58.20;;;;;;4983602;28;20234;-81
2022/03/07 11:15:08;;;;;;;1.93;1.50;;;14.50;58.20;;;;;;4975549;28;20315;-80
2022/03/07 11:17:40;;;;;;;3.27;1.40;;;14.40;59.60;;;;;;5009274;28;20243;-81
2022/03/07 11:20:08;;;;;;;1.67;1.00;;;14.40;58.80;;;;;;5000296;28;20260;-77
2022/03/07 11:22:35;;;;;;;1.63;1.40;;;14.30;59.30;;;;;;4994916;28;20293;-77
2022/03/07 11:25:04;;;;;;;2.33;1.40;;;14.20;59.80;;;;;;5001807;28;20233;-77
2022/03/07 11:27:32;;;;;;;2.57;1.70;;;14.10;58.60;;;;;;4990744;28;21021;-77
2022/03/07 11:30:00;;;;;;;3.37;2.73;;;14.10;59.10;;;;;;4995565;28;20316;-77
2022/03/07 11:32:38;;;;;;;3.20;2.60;;;14.10;58.00;;;;;;5020472;28;20228;-77
2022/03/07 11:35:05;;;;;;;5.77;2.57;;;14.20;58.70;;;;;;5018831;28;20231;-77
2022/03/07 11:37:33;;;;;;;3.13;1.80;;;14.20;58.90;;;;;;5017225;28;20348;-77
2022/03/07 11:40:01;;;;;;;2.83;1.90;;;14.10;58.00;;;;;;5017961;28;20246;-77
2022/03/07 11:42:37;;;;;;;2.47;1.70;;;14.20;59.30;;;;;;5022482;28;20241;-77
2022/03/07 11:45:08;;;;;;;2.23;1.57;;;14.20;57.60;;;;;;5021611;28;20259;-77
2022/03/07 11:47:37;;;;;;;3.83;2.00;;;14.20;57.20;;;;;;4999543;28;20238;-77
2022/03/07 11:50:05;;;;;;;3.90;1.60;;;14.20;57.90;;;;;;4976486;28;20240;-76
2022/03/07 11:52:32;;;;;;;2.27;1.70;;;14.20;58.10;;;;;;4997266;28;20246;-77
2022/03/07 11:55:03;;;;;;;2.43;1.80;;;14.20;58.00;;;;;;4981987;28;20306;-77
2022/03/07 11:57:37;;;;;;;2.10;1.47;;;14.20;57.60;;;;;;4997022;28;20279;-77
2022/03/07 12:00:12;;;;;;;3.10;1.27;;;14.20;57.30;;;;;;5000851;28;20225;-77
2022/03/07 12:02:42;;;;;;;2.43;1.53;;;14.20;57.80;;;;;;5017225;28;20222;-77
2022/03/07 12:05:21;;;;;;;1.43;1.20;;;14.30;57.80;;;;;;5026615;28;20223;-77
2022/03/07 12:07:47;;;;;;;1.37;1.00;;;14.30;56.90;;;;;;5028357;28;20241;-77
2022/03/07 12:10:14;;;;;;;1.80;1.43;;;14.30;55.10;;;;;;5022808;28;20589;-77
2022/03/07 12:12:42;;;;;;;1.20;1.10;;;14.20;56.30;;;;;;5018893;28;20229;-77
2022/03/07 12:15:11;;;;;;;1.60;1.10;;;14.20;57.20;;;;;;5021733;28;20257;-77
2022/03/07 12:17:38;;;;;;;1.43;1.13;;;14.10;56.80;;;;;;5019974;28;20332;-77
2022/03/07 12:20:07;;;;;;;2.03;1.27;;;14.10;57.00;;;;;;5017937;28;20926;-77
2022/03/07 12:22:35;;;;;;;1.10;0.90;;;14.10;56.80;;;;;;5019102;28;20578;-77
2022/03/07 12:25:04;;;;;;;2.67;1.10;;;14.20;57.00;;;;;;5019617;28;20220;-77
2022/03/07 12:27:33;;;;;;;1.93;1.20;;;14.30;57.70;;;;;;5023312;28;20230;-77
2022/03/07 12:30:02;;;;;;;2.23;1.10;;;14.50;57.00;;;;;;4999209;28;20240;-77
2022/03/07 12:32:29;;;;;;;1.93;1.20;;;14.70;55.10;;;;;;4997724;28;20235;-77
2022/03/07 12:34:55;;;;;;;1.50;1.13;;;14.60;53.80;;;;;;5019439;28;20228;-77
2022/03/07 12:37:23;;;;;;;3.43;1.23;;;14.50;55.10;;;;;;5017374;28;20314;-77